Tempiute, Nevada
Current Conditions -  °F | °C
As of 9:58 AM on Tuesday 21 Oct 2014 (Local Time) from KINS Reporting Station
Clear Clear  
Wind Chill: 68°   Ceiling: Unl
Heat Index: 68°   Visibility: 10mi
Dew Point: 38°   Wind: 1mph
Humidity: 32%   Direction: 200°SSW
Pressure: 29.95"   Gusts: NA
Location:  37.3772°N, 115.475°W
Report Text: KINS 211658Z AUTO 20001KT 10SM CLR 20/03 A2995 RMK AO2 SLP104 T02020031
Loading
Personal Weather Stations






























Interactive Weather Map
Tropical Storm Tracking
New forecast layout! Learn more

10-Day Weather Forecast

Advertisements
Track Severe Weather on mobile